createdAt,value
2019-05-07T00:00:34.553Z,12.70
2019-05-07T00:03:03.415Z,12.60
2019-05-07T00:05:33.191Z,12.37
2019-05-07T00:08:03.035Z,12.75
2019-05-07T00:10:33.173Z,13.20
2019-05-07T00:13:02.465Z,12.53
2019-05-07T00:15:32.825Z,13.13
2019-05-07T00:18:03.162Z,12.55
2019-05-07T00:20:32.712Z,12.75
2019-05-07T00:23:02.996Z,13.72
2019-05-07T00:25:32.849Z,12.37
2019-05-07T00:28:02.751Z,12.68
2019-05-07T00:30:33.214Z,11.65
2019-05-07T00:33:02.749Z,13.10
2019-05-07T00:35:35.912Z,12.98
2019-05-07T00:38:12.923Z,12.78
2019-05-07T00:40:45.860Z,13.55
2019-05-07T00:43:18.882Z,15.23
2019-05-07T00:45:49.097Z,15.32
2019-05-07T00:48:17.689Z,14.30
2019-05-07T00:50:47.970Z,14.47
2019-05-07T00:53:16.721Z,13.83
2019-05-07T00:55:45.374Z,15.08
2019-05-07T00:58:14.048Z,14.20
2019-05-07T01:00:42.628Z,14.25
2019-05-07T01:03:12.866Z,15.28
2019-05-07T01:05:43.209Z,14.50
2019-05-07T01:08:13.152Z,13.53
2019-05-07T01:10:42.079Z,13.83
2019-05-07T01:13:12.598Z,14.15
2019-05-07T01:15:42.951Z,14.40
2019-05-07T01:18:12.364Z,14.15
2019-05-07T01:20:42.352Z,14.38
2019-05-07T01:23:13.347Z,15.13
2019-05-07T01:25:43.030Z,13.98
2019-05-07T01:28:13.217Z,15.43
2019-05-07T01:30:43.209Z,12.82
2019-05-07T01:33:13.764Z,14.47
2019-05-07T01:35:43.986Z,15.43
2019-05-07T01:38:13.797Z,15.23
2019-05-07T01:40:42.826Z,14.30
2019-05-07T01:43:12.078Z,15.98
2019-05-07T01:45:49.225Z,15.60
2019-05-07T01:48:34.212Z,16.17
2019-05-07T01:51:03.540Z,14.83
2019-05-07T01:53:32.449Z,15.03
2019-05-07T01:56:03.295Z,15.78
2019-05-07T01:58:33.108Z,15.85
2019-05-07T02:01:02.747Z,16.05
2019-05-07T02:03:44.971Z,15.00
2019-05-07T02:06:18.024Z,15.72
2019-05-07T02:09:04.741Z,14.60
2019-05-07T02:11:42.235Z,15.38
2019-05-07T02:14:11.013Z,13.83
2019-05-07T02:16:41.739Z,14.68
2019-05-07T02:19:09.821Z,14.63
2019-05-07T02:21:38.398Z,16.73
2019-05-07T02:24:07.050Z,15.63
2019-05-07T02:26:35.975Z,16.07
2019-05-07T02:29:04.730Z,15.65
2019-05-07T02:31:33.930Z,16.52
2019-05-07T02:34:02.987Z,16.37
2019-05-07T02:36:33.986Z,14.98
2019-05-07T02:39:04.418Z,16.00
2019-05-07T02:41:34.923Z,16.52
2019-05-07T02:44:04.368Z,18.40
2019-05-07T02:46:36.289Z,17.35
2019-05-07T02:49:06.755Z,16.42
2019-05-07T02:51:37.125Z,16.25
2019-05-07T02:54:07.428Z,15.83
2019-05-07T02:56:36.453Z,17.10
2019-05-07T02:59:05.186Z,16.52
2019-05-07T03:01:34.235Z,17.60
2019-05-07T03:04:03.654Z,17.15
2019-05-07T03:06:33.882Z,18.07
2019-05-07T03:09:03.383Z,17.00
2019-05-07T03:11:33.901Z,18.45
2019-05-07T03:14:03.362Z,18.35
2019-05-07T03:16:39.805Z,17.32
2019-05-07T03:19:04.108Z,17.23
2019-05-07T03:21:53.962Z,16.35
2019-05-07T03:24:23.190Z,16.57
2019-05-07T03:26:53.534Z,16.55
2019-05-07T03:29:24.129Z,16.93
2019-05-07T03:32:06.153Z,17.40
2019-05-07T03:34:38.205Z,17.02
2019-05-07T03:37:08.400Z,18.90
2019-05-07T03:39:56.309Z,17.55
2019-05-07T03:42:24.904Z,15.60
2019-05-07T03:45:03.640Z,15.88
2019-05-07T03:47:33.318Z,16.95
2019-05-07T03:50:03.303Z,15.58
2019-05-07T03:52:33.593Z,16.35
2019-05-07T03:55:03.650Z,17.87
2019-05-07T03:57:33.319Z,18.82
2019-05-07T04:00:04.249Z,19.17
2019-05-07T04:02:33.435Z,18.82
2019-05-07T04:05:04.334Z,19.17
2019-05-07T04:07:33.627Z,19.52
2019-05-07T04:10:04.726Z,19.45
2019-05-07T04:12:34.266Z,19.55
2019-05-07T04:15:03.673Z,19.80
2019-05-07T04:17:33.965Z,19.30
2019-05-07T04:20:04.474Z,19.02
2019-05-07T04:22:34.518Z,19.48
2019-05-07T04:25:16.012Z,19.52
2019-05-07T04:27:55.484Z,18.57
2019-05-07T04:30:24.476Z,21.17
2019-05-07T04:32:54.911Z,20.77
2019-05-07T04:35:43.116Z,22.25
2019-05-07T04:38:13.348Z,20.45
2019-05-07T04:40:43.483Z,20.50
2019-05-07T04:43:13.659Z,20.52
2019-05-07T04:45:43.280Z,20.43
2019-05-07T04:48:14.201Z,20.35
2019-05-07T04:50:47.580Z,21.25
2019-05-07T04:53:14.706Z,20.72
2019-05-07T04:55:43.367Z,18.82
2019-05-07T04:58:14.076Z,20.32
2019-05-07T05:00:43.167Z,20.25
2019-05-07T05:03:13.711Z,19.35
2019-05-07T05:05:43.543Z,19.98
2019-05-07T05:08:13.353Z,18.73
2019-05-07T05:10:43.345Z,19.98
2019-05-07T05:13:13.113Z,18.62
2019-05-07T05:15:43.149Z,19.85
2019-05-07T05:18:12.893Z,17.32
2019-05-07T05:20:46.375Z,18.00
2019-05-07T05:23:32.273Z,18.00
2019-05-07T05:26:01.963Z,17.65
2019-05-07T05:28:32.338Z,17.48
2019-05-07T05:31:03.395Z,16.75
2019-05-07T05:33:32.635Z,17.90
2019-05-07T05:36:03.056Z,16.23
2019-05-07T05:38:32.882Z,17.60
2019-05-07T05:41:02.747Z,16.23
2019-05-07T05:43:36.380Z,16.13
2019-05-07T05:46:06.734Z,17.00
2019-05-07T05:48:35.289Z,16.20
2019-05-07T05:51:05.650Z,16.63
2019-05-07T05:53:44.499Z,16.63
2019-05-07T05:56:32.510Z,16.73
2019-05-07T05:59:24.159Z,15.83
2019-05-07T06:02:05.938Z,14.83
2019-05-07T06:04:34.336Z,16.07
2019-05-07T06:07:22.673Z,15.43
2019-05-07T06:09:58.464Z,15.10
2019-05-07T06:12:28.665Z,15.07
2019-05-07T06:14:59.128Z,15.60
2019-05-07T06:17:32.203Z,14.77
2019-05-07T06:20:03.073Z,15.30
2019-05-07T06:22:45.351Z,15.67
2019-05-07T06:25:15.739Z,14.33
2019-05-07T06:27:44.302Z,13.63
2019-05-07T06:30:13.277Z,14.40
2019-05-07T06:32:42.972Z,15.30
2019-05-07T06:35:13.207Z,15.07
2019-05-07T06:37:42.993Z,14.10
2019-05-07T06:40:19.402Z,14.53
2019-05-07T06:42:52.397Z,13.97
2019-05-07T06:45:28.389Z,13.87
2019-05-07T06:47:57.047Z,14.30
2019-05-07T06:50:25.766Z,14.63
2019-05-07T06:52:54.500Z,15.27
2019-05-07T06:55:23.043Z,13.50
2019-05-07T06:57:53.013Z,14.93
2019-05-07T07:00:24.975Z,13.67
2019-05-07T07:03:12.750Z,13.77
2019-05-07T07:05:43.123Z,14.17
2019-05-07T07:08:25.506Z,14.47
2019-05-07T07:11:12.888Z,13.87
2019-05-07T07:13:42.702Z,13.87
2019-05-07T07:16:12.709Z,14.40
2019-05-07T07:18:51.286Z,13.27
2019-05-07T07:21:12.428Z,14.00
2019-05-07T07:23:42.923Z,13.60
2019-05-07T07:26:12.619Z,12.93
2019-05-07T07:28:42.995Z,13.63
2019-05-07T07:31:19.445Z,12.93
2019-05-07T07:33:49.730Z,13.30
2019-05-07T07:36:19.815Z,12.57
2019-05-07T07:38:48.470Z,10.73
2019-05-07T07:41:22.231Z,12.83
2019-05-07T07:43:52.604Z,13.23
2019-05-07T07:46:22.281Z,12.17
2019-05-07T07:49:04.255Z,12.23
2019-05-07T07:51:36.721Z,12.40
2019-05-07T07:53:52.096Z,12.87
2019-05-07T07:56:49.074Z,11.87
2019-05-07T07:59:15.239Z,11.90
2019-05-07T08:02:03.625Z,10.73
2019-05-07T08:04:32.607Z,10.80
2019-05-07T08:07:04.005Z,12.07
2019-05-07T08:09:34.841Z,10.07
2019-05-07T08:12:04.248Z,11.33
2019-05-07T08:14:33.332Z,9.83
2019-05-07T08:17:03.694Z,10.63
2019-05-07T08:19:32.907Z,10.50
2019-05-07T08:22:02.891Z,10.07
2019-05-07T08:24:32.140Z,10.47
2019-05-07T08:27:02.465Z,10.47
2019-05-07T08:29:32.619Z,9.97
2019-05-07T08:32:12.711Z,9.80
2019-05-07T08:34:42.996Z,9.80
2019-05-07T08:37:12.096Z,9.73
2019-05-07T08:39:42.882Z,9.67
2019-05-07T08:42:12.259Z,9.80
2019-05-07T08:44:43.158Z,9.63
2019-05-07T08:47:13.573Z,9.47
2019-05-07T08:49:43.528Z,9.03
2019-05-07T08:52:12.618Z,9.43
2019-05-07T08:54:42.809Z,9.20
2019-05-07T08:57:12.131Z,8.47
2019-05-07T08:59:43.742Z,7.10
2019-05-07T09:02:12.561Z,7.00
2019-05-07T09:04:41.856Z,6.90
2019-05-07T09:07:12.814Z,7.13
2019-05-07T09:09:42.627Z,7.70
2019-05-07T09:12:12.572Z,6.87
2019-05-07T09:14:42.619Z,6.53
2019-05-07T09:17:12.771Z,6.63
2019-05-07T09:19:50.692Z,6.60
2019-05-07T09:22:12.838Z,5.93
2019-05-07T09:24:42.438Z,5.83
2019-05-07T09:27:16.178Z,6.20
2019-05-07T09:29:49.057Z,6.43
2019-05-07T09:32:19.371Z,6.50
2019-05-07T09:34:52.850Z,5.83
2019-05-07T09:37:23.227Z,5.73
2019-05-07T09:39:51.951Z,6.03
2019-05-07T09:42:22.441Z,5.63
2019-05-07T09:44:52.744Z,5.43
2019-05-07T09:47:21.954Z,5.40
2019-05-07T09:50:04.283Z,5.83
2019-05-07T09:52:22.869Z,5.60
2019-05-07T09:54:52.260Z,5.20
2019-05-07T09:57:30.053Z,5.40
2019-05-07T09:59:53.065Z,5.13
2019-05-07T10:02:22.671Z,5.27
2019-05-07T10:04:52.614Z,4.70
2019-05-07T10:07:22.472Z,5.40
2019-05-07T10:09:52.253Z,5.00
2019-05-07T10:12:37.986Z,5.77
2019-05-07T10:15:08.131Z,6.33
2019-05-07T10:17:38.485Z,6.10
2019-05-07T10:20:19.325Z,5.87
2019-05-07T10:22:39.459Z,5.50
2019-05-07T10:25:08.271Z,5.40
2019-05-07T10:27:38.644Z,5.80
2019-05-07T10:30:07.636Z,5.67
2019-05-07T10:32:36.399Z,5.63
2019-05-07T10:35:08.670Z,5.50
2019-05-07T10:37:37.321Z,5.50
2019-05-07T10:40:12.077Z,5.20
2019-05-07T10:42:42.762Z,6.03
2019-05-07T10:45:13.134Z,5.30
2019-05-07T10:47:59.872Z,4.93
2019-05-07T10:50:38.870Z,5.90
2019-05-07T10:53:02.100Z,5.43
2019-05-07T10:55:32.796Z,4.60
2019-05-07T10:58:03.010Z,5.07
2019-05-07T11:00:33.157Z,4.87
2019-05-07T11:03:02.486Z,4.40
2019-05-07T11:05:32.612Z,5.20
2019-05-07T11:08:02.475Z,5.10
2019-05-07T11:10:32.635Z,5.00
2019-05-07T11:13:02.400Z,4.80
2019-05-07T11:15:32.651Z,4.83
2019-05-07T11:18:15.910Z,5.07
2019-05-07T11:20:49.672Z,5.23
2019-05-07T11:23:14.932Z,5.43
2019-05-07T11:25:43.565Z,5.97
2019-05-07T11:28:12.501Z,5.43
2019-05-07T11:30:42.573Z,5.30
2019-05-07T11:33:12.811Z,5.13
2019-05-07T11:35:42.246Z,5.10
2019-05-07T11:38:20.602Z,5.40
2019-05-07T11:40:42.777Z,5.40
2019-05-07T11:43:28.897Z,5.53
2019-05-07T11:46:08.078Z,5.27
2019-05-07T11:48:38.315Z,5.87
2019-05-07T11:51:27.052Z,5.47
2019-05-07T11:54:08.403Z,5.10
2019-05-07T11:56:37.507Z,5.20
2019-05-07T11:59:06.627Z,5.20
2019-05-07T12:01:44.572Z,5.97
2019-05-07T12:04:07.567Z,5.23
2019-05-07T12:06:36.202Z,5.97
2019-05-07T12:09:07.230Z,5.60
2019-05-07T12:11:36.224Z,5.10
2019-05-07T12:14:05.204Z,5.40
2019-05-07T12:16:33.776Z,5.73
2019-05-07T12:19:02.455Z,5.70
2019-05-07T12:21:31.491Z,6.27
2019-05-07T12:24:02.162Z,6.53
2019-05-07T12:26:31.959Z,6.50
2019-05-07T12:29:00.590Z,5.40
2019-05-07T12:31:42.631Z,5.70
2019-05-07T12:34:13.293Z,5.63
2019-05-07T12:36:41.876Z,5.60
2019-05-07T12:39:12.584Z,6.20
2019-05-07T12:41:41.906Z,6.43
2019-05-07T12:44:12.982Z,6.37
2019-05-07T12:46:42.410Z,6.07
2019-05-07T12:49:12.017Z,6.20
2019-05-07T12:51:47.861Z,5.70
2019-05-07T12:54:23.799Z,5.50
2019-05-07T12:56:52.417Z,5.97
2019-05-07T12:59:21.849Z,6.37
2019-05-07T13:02:26.609Z,6.93
2019-05-07T13:04:41.817Z,6.20
2019-05-07T13:07:24.526Z,6.03
2019-05-07T13:09:53.791Z,6.47
2019-05-07T13:12:22.501Z,6.97
2019-05-07T13:14:52.167Z,6.47
2019-05-07T13:17:22.420Z,6.90
2019-05-07T13:19:52.445Z,7.10
2019-05-07T13:22:21.979Z,7.20
2019-05-07T13:24:52.827Z,6.77
2019-05-07T13:27:21.277Z,6.77
2019-05-07T13:29:49.927Z,6.17
2019-05-07T13:32:19.266Z,6.07
2019-05-07T13:34:47.916Z,7.77
2019-05-07T13:37:23.794Z,6.67
2019-05-07T13:39:54.110Z,6.37
2019-05-07T13:42:43.944Z,7.87
2019-05-07T13:45:31.750Z,7.50
2019-05-07T13:48:02.823Z,7.13
2019-05-07T13:50:32.530Z,7.03
2019-05-07T13:53:01.788Z,7.60
2019-05-07T13:55:32.265Z,6.87
2019-05-07T13:58:00.917Z,6.53
2019-05-07T14:00:32.448Z,6.77
2019-05-07T14:03:03.227Z,6.30
2019-05-07T14:05:32.384Z,6.73
2019-05-07T14:08:04.332Z,7.10
2019-05-07T14:10:33.694Z,6.63
2019-05-07T14:13:12.577Z,6.80
2019-05-07T14:15:35.050Z,6.33
2019-05-07T14:18:03.191Z,7.33
2019-05-07T14:20:32.998Z,7.43
2019-05-07T14:23:01.729Z,8.10
2019-05-07T14:25:32.492Z,7.10
2019-05-07T14:28:02.259Z,7.97
2019-05-07T14:30:32.849Z,7.60
2019-05-07T14:33:05.717Z,8.63
2019-05-07T14:35:38.100Z,8.03
2019-05-07T14:38:13.680Z,8.27
2019-05-07T14:40:42.662Z,7.93
2019-05-07T14:43:13.041Z,8.60
2019-05-07T14:45:42.156Z,9.03
2019-05-07T14:48:12.168Z,8.80
2019-05-07T14:50:41.951Z,8.83
2019-05-07T14:53:11.954Z,8.87
2019-05-07T14:55:41.796Z,8.37
2019-05-07T14:58:12.447Z,8.73
2019-05-07T15:00:42.734Z,9.17
2019-05-07T15:03:12.462Z,8.97
2019-05-07T15:05:42.241Z,8.77
2019-05-07T15:08:14.078Z,8.73
2019-05-07T15:10:41.920Z,7.70
2019-05-07T15:13:12.595Z,8.80
2019-05-07T15:15:41.359Z,8.67
2019-05-07T15:18:15.727Z,8.33
2019-05-07T15:20:44.612Z,8.33
2019-05-07T15:23:15.360Z,8.30
2019-05-07T15:25:44.116Z,9.33
2019-05-07T15:28:13.344Z,8.00
2019-05-07T15:30:46.354Z,8.50
2019-05-07T15:33:15.042Z,8.83
2019-05-07T15:35:43.748Z,8.57
2019-05-07T15:38:12.471Z,8.77
2019-05-07T15:40:42.236Z,8.43
2019-05-07T15:43:12.902Z,8.73
2019-05-07T15:45:41.450Z,9.07
2019-05-07T15:48:10.122Z,8.03
2019-05-07T15:50:38.773Z,8.80
2019-05-07T15:53:09.084Z,8.43
2019-05-07T15:55:37.707Z,9.17
2019-05-07T15:58:06.469Z,9.33
2019-05-07T16:00:36.351Z,9.10
2019-05-07T16:03:07.051Z,8.70
2019-05-07T16:05:35.906Z,9.20
2019-05-07T16:08:05.989Z,9.17
2019-05-07T16:10:34.699Z,8.73
2019-05-07T16:13:03.619Z,9.90
2019-05-07T16:15:32.464Z,9.90
2019-05-07T16:18:17.523Z,9.90
2019-05-07T16:20:46.080Z,9.20
2019-05-07T16:23:18.060Z,9.00
2019-05-07T16:25:45.005Z,8.77
2019-05-07T16:28:13.645Z,9.83
2019-05-07T16:30:42.745Z,9.70
2019-05-07T16:33:12.773Z,9.37
2019-05-07T16:35:42.589Z,9.60
2019-05-07T16:38:14.570Z,9.40
2019-05-07T16:40:42.857Z,9.73
2019-05-07T16:43:12.224Z,9.83
2019-05-07T16:45:42.409Z,9.27
2019-05-07T16:48:12.748Z,8.77
2019-05-07T16:50:41.400Z,9.57
2019-05-07T16:53:12.174Z,9.87
2019-05-07T16:55:40.595Z,9.70
2019-05-07T16:58:12.551Z,9.53
2019-05-07T17:00:42.953Z,8.70
2019-05-07T17:03:13.337Z,8.10
2019-05-07T17:05:42.864Z,8.73
2019-05-07T17:08:13.188Z,7.50
2019-05-07T17:10:42.480Z,7.10
2019-05-07T17:13:12.503Z,7.57
2019-05-07T17:15:57.693Z,7.27
2019-05-07T17:18:28.547Z,7.17
2019-05-07T17:20:58.391Z,7.10
2019-05-07T17:23:34.408Z,7.63
2019-05-07T17:25:57.530Z,7.33
2019-05-07T17:28:27.837Z,6.93
2019-05-07T17:30:56.699Z,7.80
2019-05-07T17:33:25.239Z,8.07
2019-05-07T17:35:53.988Z,7.90
2019-05-07T17:38:23.195Z,8.60
2019-05-07T17:40:52.278Z,7.57
2019-05-07T17:43:21.975Z,6.97
2019-05-07T17:45:52.342Z,7.80
2019-05-07T17:48:23.152Z,7.27
2019-05-07T17:51:08.505Z,7.00
2019-05-07T17:53:37.824Z,7.37
2019-05-07T17:56:06.394Z,7.50
2019-05-07T17:58:35.052Z,7.23
2019-05-07T18:01:05.043Z,8.00
2019-05-07T18:03:35.561Z,8.33
2019-05-07T18:06:05.033Z,8.97
2019-05-07T18:08:33.766Z,8.73
2019-05-07T18:11:02.721Z,9.13
2019-05-07T18:13:32.936Z,8.23
2019-05-07T18:16:09.282Z,8.83
2019-05-07T18:18:37.900Z,8.67
2019-05-07T18:21:06.926Z,9.73
2019-05-07T18:23:35.727Z,9.33
2019-05-07T18:26:04.446Z,9.40
2019-05-07T18:28:32.997Z,9.13
2019-05-07T18:31:02.151Z,8.57
2019-05-07T18:33:52.366Z,10.10
2019-05-07T18:36:22.687Z,8.93
2019-05-07T18:38:52.813Z,9.23
2019-05-07T18:41:22.428Z,9.37
2019-05-07T18:43:54.420Z,9.17
2019-05-07T18:46:22.113Z,8.53
2019-05-07T18:48:51.805Z,8.47
2019-05-07T18:51:20.762Z,9.30
2019-05-07T18:53:49.364Z,9.27
2019-05-07T18:56:17.929Z,9.00
2019-05-07T18:58:46.513Z,8.20
2019-05-07T19:01:16.356Z,9.27
2019-05-07T19:03:45.248Z,7.67
2019-05-07T19:06:13.982Z,9.10
2019-05-07T19:08:42.550Z,9.13
2019-05-07T19:11:12.252Z,7.90
2019-05-07T19:13:41.943Z,8.20
2019-05-07T19:16:12.388Z,8.40
2019-05-07T19:18:43.048Z,8.47
2019-05-07T19:21:11.911Z,8.93
2019-05-07T19:23:42.414Z,9.30
2019-05-07T19:26:13.098Z,9.93
2019-05-07T19:28:41.521Z,10.43
2019-05-07T19:31:12.268Z,10.37
2019-05-07T19:33:41.943Z,10.30
2019-05-07T19:36:11.318Z,10.70
2019-05-07T19:38:41.933Z,10.50
2019-05-07T19:41:12.315Z,10.40
2019-05-07T19:43:41.930Z,10.47
2019-05-07T19:46:12.349Z,10.53
2019-05-07T19:48:41.167Z,10.57
2019-05-07T19:51:12.021Z,10.67
2019-05-07T19:53:41.946Z,10.93
2019-05-07T19:56:12.525Z,10.47
2019-05-07T19:58:41.883Z,10.47
2019-05-07T20:01:12.197Z,10.67
2019-05-07T20:03:40.846Z,10.50
2019-05-07T20:06:09.572Z,10.53
2019-05-07T20:08:38.144Z,11.47
2019-05-07T20:11:14.206Z,10.60
2019-05-07T20:13:43.773Z,11.93
2019-05-07T20:16:14.200Z,11.63
2019-05-07T20:18:42.986Z,11.33
2019-05-07T20:21:12.405Z,11.07
2019-05-07T20:23:43.131Z,11.10
2019-05-07T20:26:12.635Z,11.40
2019-05-07T20:28:41.839Z,11.47
2019-05-07T20:31:12.292Z,11.20
2019-05-07T20:33:42.246Z,10.70
2019-05-07T20:36:11.236Z,11.03
2019-05-07T20:38:39.894Z,11.77
2019-05-07T20:41:08.734Z,11.23
2019-05-07T20:43:38.262Z,11.13
2019-05-07T20:46:07.001Z,12.03
2019-05-07T20:48:35.611Z,11.50
2019-05-07T20:51:04.691Z,11.00
2019-05-07T20:53:52.274Z,11.07
2019-05-07T20:56:22.768Z,12.30
2019-05-07T20:58:52.028Z,11.73
2019-05-07T21:01:22.025Z,11.90
2019-05-07T21:03:52.593Z,11.87
2019-05-07T21:06:22.535Z,11.50
2019-05-07T21:08:51.299Z,12.40
2019-05-07T21:11:19.924Z,12.97
2019-05-07T21:13:48.556Z,13.17
2019-05-07T21:16:17.179Z,12.90
2019-05-07T21:18:45.751Z,13.70
2019-05-07T21:21:14.403Z,13.53
2019-05-07T21:23:43.538Z,12.97
2019-05-07T21:26:13.293Z,12.43
2019-05-07T21:28:43.129Z,12.47
2019-05-07T21:31:12.470Z,12.43
2019-05-07T21:33:42.917Z,12.50
2019-05-07T21:36:12.074Z,14.00
2019-05-07T21:38:42.684Z,13.17
2019-05-07T21:41:12.887Z,12.17
2019-05-07T21:43:45.575Z,12.77
2019-05-07T21:46:12.750Z,12.93
2019-05-07T21:48:41.685Z,12.80
2019-05-07T21:51:12.175Z,12.90
2019-05-07T21:53:42.910Z,12.40
2019-05-07T21:56:29.726Z,13.07
2019-05-07T21:59:03.285Z,12.23
2019-05-07T22:01:33.576Z,12.97
2019-05-07T22:04:02.249Z,13.20
2019-05-07T22:06:31.310Z,12.43
2019-05-07T22:09:01.945Z,12.63
2019-05-07T22:11:32.130Z,13.13
2019-05-07T22:14:02.136Z,13.40
2019-05-07T22:16:32.886Z,13.17
2019-05-07T22:19:02.649Z,12.50
2019-05-07T22:21:33.902Z,12.37
2019-05-07T22:24:02.784Z,12.80
2019-05-07T22:26:32.310Z,12.80
2019-05-07T22:29:03.205Z,12.30
2019-05-07T22:31:38.967Z,13.10
2019-05-07T22:34:09.217Z,13.17
2019-05-07T22:36:37.935Z,12.33
2019-05-07T22:39:08.302Z,12.50
2019-05-07T22:41:36.868Z,13.23
2019-05-07T22:44:05.557Z,12.83
2019-05-07T22:46:34.140Z,13.03
2019-05-07T22:49:03.195Z,13.73
2019-05-07T22:51:31.944Z,13.27
2019-05-07T22:54:04.105Z,12.97
2019-05-07T22:56:49.052Z,12.63
2019-05-07T22:59:17.827Z,13.50
2019-05-07T23:01:46.484Z,12.20
2019-05-07T23:04:15.082Z,13.43
2019-05-07T23:06:43.770Z,13.07
2019-05-07T23:09:12.845Z,13.00
2019-05-07T23:11:41.683Z,13.83
2019-05-07T23:14:11.833Z,12.00
2019-05-07T23:16:40.649Z,13.23
2019-05-07T23:19:09.302Z,13.03
2019-05-07T23:21:38.359Z,12.43
2019-05-07T23:24:06.943Z,12.97
2019-05-07T23:26:47.210Z,13.87
2019-05-07T23:29:05.801Z,12.97
2019-05-07T23:31:34.408Z,12.57
2019-05-07T23:34:03.019Z,13.67
2019-05-07T23:36:31.614Z,13.17
2019-05-07T23:39:02.532Z,12.40
2019-05-07T23:41:42.081Z,13.07
2019-05-07T23:44:12.822Z,13.90
2019-05-07T23:46:42.609Z,13.00
2019-05-07T23:49:12.461Z,12.90
2019-05-07T23:51:42.108Z,12.77
2019-05-07T23:54:12.134Z,13.07
2019-05-07T23:56:42.664Z,12.50
2019-05-07T23:59:14.567Z,12.67
